Meath Environmental Platform

Observations for Trim Market St

Time AQI Temp °C Hum % Pres Pa CO μg/m³ H₂S μg/m³ NO μg/m³ NO₂ μg/m³ O₃ μg/m³ SO₂ μg/m³ PM1 μg/m³ PM2.5 μg/m³ PM10 μg/m³
Wednesday 12 August 2026
01:36 2 20.2 60 57,825 0 0 1.22 17.16 60.58 0 2.14 4.51 6.16
01:35 2 20.2 60 57,827 0 0 1.22 15.24 58.14 0 0.71 3.52 5.47
01:33 2 20.2 60 57,835 0 0 1.22 18.04 58.89 0 0.71 3.02 4.79
01:32 2 20.2 60 57,840 0 0 1.22 28.61 58.39 0 1.43 4.02 5.47
01:30 2 20.3 60 57,849 0 0 1.22 17.71 61.85 0 1.43 4.03 7.53
01:29 2 20.3 60 57,852 0.01 0 1.21 28.47 55.01 0 1.43 3.53 4.78
01:27 2 20.3 60 57,856 0 0 1.21 16.31 63.87 0 2.14 4.05 5.46
01:26 2 20.3 60 57,858 0 0 1.21 17.68 62.52 0 2.14 4.05 5.46
01:24 2 20.3 59 57,864 0 0 1.21 17.12 61.45 0 1.43 3.56 4.77
01:22 2 20.3 59 57,869 0 0 1.21 16.85 60.87 0 2.14 3.56 6.15
01:17 2 20.4 59 57,877 0 0 1.2 23.63 49.62 0 0.71 2.57 3.37
01:15 2 20.5 59 57,880 0 0 1.21 19.04 60.13 0 1.43 4.09 5.45
01:09 2 20.6 58 57,883 0 0 1.2 16.74 60.53 0 0.71 3.1 4.05
01:08 2 20.6 58 57,883 0 0 1.2 19.28 58.91 0 1.43 3.11 4.74
01:07 2 20.6 58 57,885 0 0 1.2 16.73 60.3 0 1.43 3.11 4.04
01:06 2 20.6 58 57,887 0 0 1.2 15.39 55.01 0 1.43 3.11 4.74
01:05 2 20.6 58 57,887 0 0 1.2 15.64 62.96 0 1.43 3.12 4.04
01:04 2 20.7 58 57,887 0 0 1.2 17.19 63.65 0 1.43 4.12 5.43
01:03 2 20.7 58 57,887 0 0 1.2 28.79 54.26 0 2.14 4.13 5.43
01:02 2 20.7 58 57,885 0 0 1.21 18.92 56.21 0 0.71 2.62 3.33